createdAt,value
2023-01-18T00:00:21.597Z,26.60
2023-01-18T00:02:49.192Z,26.60
2023-01-18T00:05:16.063Z,26.60
2023-01-18T00:07:42.795Z,26.60
2023-01-18T00:10:10.777Z,26.60
2023-01-18T00:12:37.480Z,26.50
2023-01-18T00:15:05.024Z,26.50
2023-01-18T00:17:31.642Z,26.50
2023-01-18T00:19:58.313Z,26.50
2023-01-18T00:22:24.883Z,26.50
2023-01-18T00:24:51.467Z,26.50
2023-01-18T00:27:18.078Z,26.50
2023-01-18T00:29:44.697Z,26.50
2023-01-18T00:32:11.270Z,26.50
2023-01-18T00:34:37.881Z,26.50
2023-01-18T00:37:04.457Z,26.50
2023-01-18T00:39:31.027Z,26.50
2023-01-18T00:42:16.187Z,26.40
2023-01-18T00:44:42.753Z,26.40
2023-01-18T00:47:09.306Z,26.40
2023-01-18T00:49:35.971Z,26.40
2023-01-18T00:52:02.602Z,26.40
2023-01-18T00:54:29.187Z,26.50
2023-01-18T00:56:55.805Z,26.40
2023-01-18T00:59:22.425Z,26.40
2023-01-18T01:01:49.217Z,26.40
2023-01-18T01:04:34.569Z,26.40
2023-01-18T01:07:01.165Z,26.40
2023-01-18T01:09:29.657Z,26.40
2023-01-18T01:12:16.594Z,26.40
2023-01-18T01:15:04.825Z,26.40
2023-01-18T01:17:51.861Z,26.40
2023-01-18T01:20:37.345Z,26.40
2023-01-18T01:23:30.422Z,26.40
2023-01-18T01:26:05.182Z,26.30
2023-01-18T01:28:32.320Z,26.40
2023-01-18T01:31:00.446Z,26.30
2023-01-18T01:33:28.393Z,26.30
2023-01-18T01:35:56.778Z,26.30
2023-01-18T01:38:23.530Z,26.30
2023-01-18T01:41:04.836Z,26.30
2023-01-18T01:43:55.575Z,26.30
2023-01-18T01:46:28.339Z,26.30
2023-01-18T01:49:19.605Z,26.30
2023-01-18T01:51:51.579Z,26.20
2023-01-18T01:54:23.033Z,26.30
2023-01-18T01:56:53.065Z,26.20
2023-01-18T01:59:20.092Z,26.20
2023-01-18T02:01:47.324Z,26.20
2023-01-18T02:04:14.008Z,26.20
2023-01-18T02:06:40.881Z,26.20
2023-01-18T02:09:12.252Z,26.20
2023-01-18T02:11:39.987Z,26.20
2023-01-18T02:14:15.636Z,26.20
2023-01-18T02:17:13.791Z,26.20
2023-01-18T02:19:48.116Z,26.20
2023-01-18T02:22:24.160Z,26.20
2023-01-18T02:25:18.637Z,26.20
2023-01-18T02:28:01.871Z,26.10
2023-01-18T02:30:34.491Z,26.20
2023-01-18T02:33:07.139Z,26.10
2023-01-18T02:35:56.884Z,26.10
2023-01-18T02:38:33.170Z,26.10
2023-01-18T02:41:58.004Z,26.10
2023-01-18T02:44:55.440Z,26.10
2023-01-18T02:47:23.863Z,26.10
2023-01-18T02:49:50.476Z,26.10
2023-01-18T02:52:50.890Z,26.10
2023-01-18T02:55:47.202Z,26.10
2023-01-18T02:58:24.113Z,26.10
2023-01-18T03:00:59.988Z,26.10
2023-01-18T03:03:28.141Z,26.10
2023-01-18T03:06:00.089Z,26.10
2023-01-18T03:08:41.072Z,26.10
2023-01-18T03:11:14.113Z,26.10
2023-01-18T03:14:10.818Z,26.10
2023-01-18T03:16:57.797Z,26.10
2023-01-18T03:19:50.767Z,26.10
2023-01-18T03:22:18.513Z,26.10
2023-01-18T03:24:45.924Z,26.00
2023-01-18T03:27:32.188Z,26.00
2023-01-18T03:30:17.779Z,26.00
2023-01-18T03:33:03.307Z,26.00
2023-01-18T03:35:31.984Z,26.00
2023-01-18T03:37:59.040Z,26.10
2023-01-18T03:40:29.602Z,26.00
2023-01-18T03:43:08.204Z,26.00
2023-01-18T03:45:39.950Z,26.00
2023-01-18T03:48:09.229Z,26.00
2023-01-18T03:50:57.150Z,25.90
2023-01-18T03:53:45.657Z,25.90
2023-01-18T03:56:24.462Z,26.00
2023-01-18T03:58:54.146Z,25.90
2023-01-18T04:01:21.225Z,26.00
2023-01-18T04:03:47.881Z,25.90
2023-01-18T04:06:14.532Z,25.90
2023-01-18T04:08:41.111Z,25.90
2023-01-18T04:11:07.821Z,25.90
2023-01-18T04:13:34.387Z,25.90
2023-01-18T04:16:01.010Z,25.90
2023-01-18T04:18:27.695Z,25.90
2023-01-18T04:20:56.364Z,25.90
2023-01-18T04:23:23.937Z,25.90
2023-01-18T04:25:51.472Z,25.90
2023-01-18T04:28:25.293Z,25.90
2023-01-18T04:30:56.685Z,25.90
2023-01-18T04:33:26.508Z,25.90
2023-01-18T04:35:56.462Z,26.00
2023-01-18T04:38:23.479Z,26.00
2023-01-18T04:40:50.517Z,25.90
2023-01-18T04:43:17.172Z,25.90
2023-01-18T04:45:51.794Z,25.90
2023-01-18T04:48:19.075Z,25.90
2023-01-18T04:50:46.502Z,25.90
2023-01-18T04:53:13.141Z,25.90
2023-01-18T04:55:39.771Z,25.90
2023-01-18T04:58:06.359Z,25.90
2023-01-18T05:00:33.097Z,25.90
2023-01-18T05:03:00.412Z,26.00
2023-01-18T05:05:28.255Z,26.00
2023-01-18T05:07:54.827Z,26.00
2023-01-18T05:10:21.447Z,26.00
2023-01-18T05:12:48.046Z,26.10
2023-01-18T05:15:14.791Z,26.10
2023-01-18T05:17:42.095Z,26.10
2023-01-18T05:20:10.229Z,26.10
2023-01-18T05:22:37.201Z,26.20
2023-01-18T05:25:05.653Z,26.20
2023-01-18T05:27:32.882Z,26.20
2023-01-18T05:29:59.684Z,26.30
2023-01-18T05:32:26.316Z,26.30
2023-01-18T05:34:52.913Z,26.40
2023-01-18T05:37:19.557Z,26.40
2023-01-18T05:39:46.215Z,26.50
2023-01-18T05:42:12.999Z,26.50
2023-01-18T05:44:39.674Z,26.60
2023-01-18T05:47:06.371Z,26.60
2023-01-18T05:49:32.960Z,26.60
2023-01-18T05:51:59.789Z,26.70
2023-01-18T05:54:26.436Z,26.70
2023-01-18T05:56:53.050Z,26.70
2023-01-18T05:59:19.702Z,26.70
2023-01-18T06:01:46.403Z,26.70
2023-01-18T06:04:13.041Z,26.80
2023-01-18T06:06:39.682Z,26.80
2023-01-18T06:09:06.514Z,26.80
2023-01-18T06:11:33.189Z,26.90
2023-01-18T06:13:59.948Z,26.90
2023-01-18T06:16:26.931Z,26.90
2023-01-18T06:18:53.572Z,26.90
2023-01-18T06:21:20.227Z,26.90
2023-01-18T06:23:46.961Z,27.00
2023-01-18T06:26:13.710Z,27.00
2023-01-18T06:28:40.343Z,27.00
2023-01-18T06:31:08.376Z,27.00
2023-01-18T06:33:35.155Z,27.00
2023-01-18T06:36:01.981Z,27.10
2023-01-18T06:38:29.693Z,27.10
2023-01-18T06:40:56.302Z,27.10
2023-01-18T06:43:23.295Z,27.10
2023-01-18T06:45:56.626Z,27.10
2023-01-18T06:48:24.476Z,27.10
2023-01-18T06:50:55.014Z,27.10
2023-01-18T06:53:21.970Z,27.10
2023-01-18T06:56:01.652Z,27.10
2023-01-18T06:58:31.035Z,27.20
2023-01-18T07:00:59.818Z,27.10
2023-01-18T07:03:27.546Z,27.20
2023-01-18T07:05:58.788Z,27.20
2023-01-18T07:08:27.020Z,27.20
2023-01-18T07:10:54.264Z,27.20
2023-01-18T07:13:21.824Z,27.20
2023-01-18T07:15:54.313Z,27.20
2023-01-18T07:18:20.908Z,27.20
2023-01-18T07:20:47.569Z,27.20
2023-01-18T07:23:14.134Z,27.20
2023-01-18T07:25:40.713Z,27.30
2023-01-18T07:28:07.418Z,27.30
2023-01-18T07:30:34.074Z,27.20
2023-01-18T07:33:01.005Z,27.20
2023-01-18T07:35:27.928Z,27.10
2023-01-18T07:37:54.638Z,27.10
2023-01-18T07:40:22.181Z,27.00
2023-01-18T07:42:49.932Z,27.00
2023-01-18T07:45:16.562Z,27.00
2023-01-18T07:47:46.033Z,27.00
2023-01-18T07:50:14.026Z,27.00
2023-01-18T07:52:40.653Z,27.00
2023-01-18T07:55:07.620Z,26.90
2023-01-18T07:57:34.451Z,26.90
2023-01-18T08:00:01.084Z,26.90
2023-01-18T08:02:27.710Z,26.90
2023-01-18T08:04:54.452Z,26.90
2023-01-18T08:07:21.071Z,27.00
2023-01-18T08:09:47.653Z,27.00
2023-01-18T08:12:18.022Z,27.00
2023-01-18T08:14:45.939Z,27.00
2023-01-18T08:17:12.723Z,27.00
2023-01-18T08:19:39.498Z,27.00
2023-01-18T08:22:07.831Z,27.00
2023-01-18T08:24:34.567Z,27.00
2023-01-18T08:27:01.328Z,27.00
2023-01-18T08:29:27.936Z,27.10
2023-01-18T08:31:54.607Z,27.10
2023-01-18T08:34:21.832Z,27.10
2023-01-18T08:36:48.529Z,27.10
2023-01-18T08:39:15.134Z,27.10
2023-01-18T08:41:41.883Z,27.10
2023-01-18T08:44:08.480Z,27.10
2023-01-18T08:46:36.391Z,27.10
2023-01-18T08:49:05.631Z,27.20
2023-01-18T08:51:32.582Z,27.10
2023-01-18T08:53:59.795Z,27.10
2023-01-18T08:56:26.869Z,27.20
2023-01-18T08:58:53.951Z,27.20
2023-01-18T09:01:23.196Z,27.20
2023-01-18T09:03:50.603Z,27.30
2023-01-18T09:06:17.545Z,27.30
2023-01-18T09:08:47.366Z,27.30
2023-01-18T09:11:14.521Z,27.30
2023-01-18T09:13:58.469Z,27.30
2023-01-18T09:16:26.470Z,27.40
2023-01-18T09:18:55.274Z,27.40
2023-01-18T09:21:21.907Z,27.40
2023-01-18T09:23:49.111Z,27.50
2023-01-18T09:26:18.208Z,27.50
2023-01-18T09:28:46.933Z,27.50
2023-01-18T09:31:13.604Z,27.60
2023-01-18T09:33:51.140Z,27.60
2023-01-18T09:36:21.387Z,27.70
2023-01-18T09:38:48.060Z,27.70
2023-01-18T09:41:42.908Z,27.80
2023-01-18T09:44:16.676Z,27.80
2023-01-18T09:46:44.126Z,27.90
2023-01-18T09:49:20.359Z,27.90
2023-01-18T09:52:07.706Z,28.00
2023-01-18T09:55:03.704Z,28.00
2023-01-18T09:57:51.336Z,28.10
2023-01-18T10:00:24.201Z,28.20
2023-01-18T10:02:55.282Z,28.30
2023-01-18T10:05:27.009Z,28.40
2023-01-18T10:08:05.887Z,28.40
2023-01-18T10:10:39.189Z,28.60
2023-01-18T10:13:27.630Z,28.60
2023-01-18T10:15:54.431Z,28.70
2023-01-18T10:18:21.037Z,28.80
2023-01-18T10:20:50.653Z,28.90
2023-01-18T10:23:31.920Z,29.00
2023-01-18T10:26:21.583Z,29.00
2023-01-18T10:29:06.849Z,29.00
2023-01-18T10:31:55.733Z,29.10
2023-01-18T10:34:26.374Z,29.10
2023-01-18T10:37:06.916Z,29.20
2023-01-18T10:39:37.678Z,29.20
2023-01-18T10:42:13.376Z,29.40
2023-01-18T10:44:41.107Z,29.30
2023-01-18T10:47:07.839Z,29.30
2023-01-18T10:49:35.881Z,29.30
2023-01-18T10:52:37.817Z,29.30
2023-01-18T10:55:09.324Z,29.30
2023-01-18T10:57:52.140Z,29.40
2023-01-18T11:00:23.941Z,29.40
2023-01-18T11:02:52.955Z,29.40
2023-01-18T11:05:27.205Z,29.40
2023-01-18T11:08:13.783Z,29.40
2023-01-18T11:10:42.624Z,29.50
2023-01-18T11:13:33.217Z,29.50
2023-01-18T11:16:18.505Z,29.50
2023-01-18T11:18:59.459Z,29.60
2023-01-18T11:21:41.129Z,29.60
2023-01-18T11:24:13.338Z,29.60
2023-01-18T11:27:11.868Z,29.60
2023-01-18T11:29:43.181Z,29.70
2023-01-18T11:32:24.311Z,29.80
2023-01-18T11:34:56.709Z,29.70
2023-01-18T11:37:36.166Z,29.70
2023-01-18T11:40:27.980Z,29.70
2023-01-18T11:43:11.447Z,29.80
2023-01-18T11:45:48.062Z,29.80
2023-01-18T11:48:48.477Z,29.80
2023-01-18T11:51:50.114Z,29.80
2023-01-18T11:54:58.552Z,29.80
2023-01-18T11:57:27.894Z,29.80
2023-01-18T11:59:54.764Z,29.90
2023-01-18T12:02:26.901Z,29.90
2023-01-18T12:05:12.180Z,29.90
2023-01-18T12:08:01.140Z,29.90
2023-01-18T12:10:52.176Z,29.90
2023-01-18T12:13:27.715Z,30.00
2023-01-18T12:16:08.229Z,29.90
2023-01-18T12:19:00.057Z,30.00
2023-01-18T12:21:46.059Z,30.00
2023-01-18T12:24:24.627Z,30.00
2023-01-18T12:26:56.153Z,30.00
2023-01-18T12:29:53.578Z,30.00
2023-01-18T12:32:38.171Z,30.00
2023-01-18T12:35:25.030Z,30.00
2023-01-18T12:37:57.999Z,30.00
2023-01-18T12:40:39.730Z,30.00
2023-01-18T12:43:31.636Z,30.00
2023-01-18T12:46:07.291Z,30.00
2023-01-18T12:48:51.467Z,30.00
2023-01-18T12:51:22.687Z,30.00
2023-01-18T12:54:14.237Z,30.00
2023-01-18T12:56:46.293Z,30.00
2023-01-18T12:59:18.626Z,30.00
2023-01-18T13:02:11.648Z,30.00
2023-01-18T13:04:52.644Z,30.00
2023-01-18T13:07:26.672Z,30.00
2023-01-18T13:09:54.456Z,30.00
2023-01-18T13:12:21.439Z,30.00
2023-01-18T13:15:15.579Z,30.00
2023-01-18T13:17:52.319Z,30.00
2023-01-18T13:20:34.192Z,30.00
2023-01-18T13:23:24.903Z,30.00
2023-01-18T13:26:14.351Z,30.00
2023-01-18T13:28:41.305Z,30.00
2023-01-18T13:31:08.164Z,30.00
2023-01-18T13:33:44.757Z,30.00
2023-01-18T13:36:21.596Z,30.00
2023-01-18T13:38:58.443Z,30.00
2023-01-18T13:41:28.106Z,30.00
2023-01-18T13:44:01.207Z,30.00
2023-01-18T13:46:29.254Z,30.00
2023-01-18T13:49:02.058Z,30.00
2023-01-18T13:51:40.984Z,30.00
2023-01-18T13:54:19.065Z,30.00
2023-01-18T13:57:00.883Z,30.00
2023-01-18T13:59:32.551Z,30.00
2023-01-18T14:02:33.995Z,30.00
2023-01-18T14:05:07.164Z,30.00
2023-01-18T14:07:49.179Z,30.10
2023-01-18T14:10:44.800Z,30.10
2023-01-18T14:13:17.436Z,30.00
2023-01-18T14:15:48.266Z,30.10
2023-01-18T14:18:26.575Z,30.00
2023-01-18T14:20:58.948Z,30.10
2023-01-18T14:23:54.072Z,30.10
2023-01-18T14:26:22.338Z,30.10
2023-01-18T14:28:51.769Z,30.10
2023-01-18T14:31:29.490Z,30.00
2023-01-18T14:33:56.285Z,30.00
2023-01-18T14:36:28.555Z,30.00
2023-01-18T14:39:17.076Z,30.00
2023-01-18T14:41:52.065Z,30.00
2023-01-18T14:44:20.926Z,30.00
2023-01-18T14:46:53.803Z,30.00
2023-01-18T14:49:28.873Z,30.00
2023-01-18T14:51:56.070Z,30.00
2023-01-18T14:54:26.357Z,30.00
2023-01-18T14:57:01.310Z,30.00
2023-01-18T14:59:33.200Z,30.00
2023-01-18T15:02:02.782Z,30.00
2023-01-18T15:04:31.408Z,30.00
2023-01-18T15:07:13.676Z,30.00
2023-01-18T15:09:42.214Z,29.90
2023-01-18T15:12:11.433Z,30.00
2023-01-18T15:14:43.620Z,30.00
2023-01-18T15:17:21.204Z,29.90
2023-01-18T15:19:52.992Z,29.90
2023-01-18T15:22:24.005Z,29.90
2023-01-18T15:24:50.749Z,29.80
2023-01-18T15:27:20.064Z,29.80
2023-01-18T15:29:54.079Z,29.80
2023-01-18T15:32:22.003Z,29.80
2023-01-18T15:34:50.823Z,29.80
2023-01-18T15:37:33.073Z,29.80
2023-01-18T15:40:15.076Z,29.70
2023-01-18T15:42:59.724Z,29.70
2023-01-18T15:45:38.533Z,29.70
2023-01-18T15:48:18.631Z,29.70
2023-01-18T15:50:52.103Z,29.60
2023-01-18T15:53:29.293Z,29.60
2023-01-18T15:56:17.503Z,29.60
2023-01-18T15:58:55.621Z,29.60
2023-01-18T16:01:31.546Z,29.60
2023-01-18T16:04:22.648Z,29.50
2023-01-18T16:06:49.339Z,29.50
2023-01-18T16:09:18.218Z,29.50
2023-01-18T16:11:59.260Z,29.50
2023-01-18T16:14:28.583Z,29.40
2023-01-18T16:17:19.769Z,29.40
2023-01-18T16:19:52.683Z,29.50
2023-01-18T16:22:26.461Z,29.40
2023-01-18T16:24:58.300Z,29.30
2023-01-18T16:27:27.269Z,29.30
2023-01-18T16:29:58.249Z,29.40
2023-01-18T16:32:24.877Z,29.30
2023-01-18T16:34:55.306Z,29.30
2023-01-18T16:37:22.300Z,29.20
2023-01-18T16:39:49.680Z,29.20
2023-01-18T16:42:18.227Z,29.20
2023-01-18T16:44:47.698Z,29.20
2023-01-18T16:47:16.502Z,29.20
2023-01-18T16:49:44.101Z,29.20
2023-01-18T16:52:14.982Z,29.20
2023-01-18T16:54:45.644Z,29.20
2023-01-18T16:57:23.153Z,29.10
2023-01-18T16:59:50.422Z,29.10
2023-01-18T17:02:17.186Z,29.20
2023-01-18T17:04:45.319Z,29.10
2023-01-18T17:07:12.356Z,29.10
2023-01-18T17:09:48.034Z,29.20
2023-01-18T17:12:15.846Z,29.10
2023-01-18T17:14:42.533Z,29.10
2023-01-18T17:17:10.405Z,29.10
2023-01-18T17:19:37.922Z,29.10
2023-01-18T17:22:06.306Z,29.10
2023-01-18T17:24:33.072Z,29.10
2023-01-18T17:26:59.793Z,29.10
2023-01-18T17:29:26.461Z,29.10
2023-01-18T17:31:53.454Z,29.00
2023-01-18T17:34:28.123Z,29.10
2023-01-18T17:36:55.997Z,29.00
2023-01-18T17:39:24.887Z,29.10
2023-01-18T17:41:58.702Z,29.00
2023-01-18T17:44:36.804Z,29.00
2023-01-18T17:47:03.958Z,29.00
2023-01-18T17:49:30.582Z,29.00
2023-01-18T17:51:57.159Z,29.00
2023-01-18T17:54:23.778Z,29.00
2023-01-18T17:56:50.594Z,29.00
2023-01-18T17:59:17.186Z,29.00
2023-01-18T18:01:43.906Z,29.00
2023-01-18T18:04:10.581Z,29.00
2023-01-18T18:06:40.398Z,29.00
2023-01-18T18:09:12.696Z,29.00
2023-01-18T18:11:39.300Z,28.90
2023-01-18T18:14:06.047Z,28.90
2023-01-18T18:16:34.451Z,28.90
2023-01-18T18:19:07.558Z,28.90
2023-01-18T18:21:34.226Z,28.90
2023-01-18T18:24:01.033Z,28.90
2023-01-18T18:26:27.630Z,28.90
2023-01-18T18:28:54.244Z,28.90
2023-01-18T18:31:21.201Z,28.90
2023-01-18T18:33:47.834Z,28.90
2023-01-18T18:36:14.429Z,28.80
2023-01-18T18:38:41.089Z,28.90
2023-01-18T18:41:08.801Z,28.80
2023-01-18T18:43:35.987Z,28.80
2023-01-18T18:46:02.737Z,28.80
2023-01-18T18:48:29.931Z,28.80
2023-01-18T18:50:56.623Z,28.80
2023-01-18T18:53:29.584Z,28.80
2023-01-18T18:56:06.826Z,28.80
2023-01-18T18:58:37.105Z,28.80
2023-01-18T19:01:04.906Z,28.70
2023-01-18T19:03:32.031Z,28.70
2023-01-18T19:05:58.624Z,28.70
2023-01-18T19:08:25.233Z,28.70
2023-01-18T19:10:51.938Z,28.70
2023-01-18T19:13:19.379Z,28.70
2023-01-18T19:15:47.598Z,28.70
2023-01-18T19:18:15.232Z,28.70
2023-01-18T19:20:42.053Z,28.70
2023-01-18T19:23:10.336Z,28.60
2023-01-18T19:25:40.540Z,28.60
2023-01-18T19:28:07.528Z,28.60
2023-01-18T19:30:34.433Z,28.60
2023-01-18T19:33:02.728Z,28.60
2023-01-18T19:35:31.041Z,28.60
2023-01-18T19:38:00.732Z,28.60
2023-01-18T19:40:27.372Z,28.50
2023-01-18T19:42:54.489Z,28.50
2023-01-18T19:45:27.929Z,28.60
2023-01-18T19:47:56.605Z,28.40
2023-01-18T19:50:23.782Z,28.40
2023-01-18T19:52:50.939Z,28.30
2023-01-18T19:55:17.571Z,28.30
2023-01-18T19:57:44.196Z,28.30
2023-01-18T20:00:11.410Z,28.20
2023-01-18T20:02:39.816Z,28.20
2023-01-18T20:05:07.456Z,28.20
2023-01-18T20:07:34.079Z,28.20
2023-01-18T20:10:00.714Z,28.10
2023-01-18T20:12:31.110Z,28.10
2023-01-18T20:14:58.001Z,28.00
2023-01-18T20:17:24.723Z,28.00
2023-01-18T20:19:54.004Z,27.90
2023-01-18T20:22:21.906Z,27.90
2023-01-18T20:24:48.990Z,27.90
2023-01-18T20:27:17.097Z,27.90
2023-01-18T20:29:44.458Z,27.90
2023-01-18T20:32:16.935Z,27.80
2023-01-18T20:34:47.716Z,27.80
2023-01-18T20:37:16.313Z,27.80
2023-01-18T20:39:42.977Z,27.70
2023-01-18T20:42:09.744Z,27.70
2023-01-18T20:44:36.960Z,27.70
2023-01-18T20:47:04.176Z,27.70
2023-01-18T20:49:37.746Z,27.70
2023-01-18T20:52:06.666Z,27.60
2023-01-18T20:54:34.851Z,27.60
2023-01-18T20:57:02.733Z,27.60
2023-01-18T20:59:29.355Z,27.60
2023-01-18T21:01:56.150Z,27.60
2023-01-18T21:04:22.881Z,27.50
2023-01-18T21:06:49.772Z,27.50
2023-01-18T21:09:16.827Z,27.50
2023-01-18T21:11:43.834Z,27.40
2023-01-18T21:14:10.790Z,27.40
2023-01-18T21:16:37.499Z,27.40
2023-01-18T21:19:04.443Z,27.40
2023-01-18T21:21:31.834Z,27.40
2023-01-18T21:23:58.981Z,27.40
2023-01-18T21:26:25.703Z,27.40
2023-01-18T21:28:52.603Z,27.40
2023-01-18T21:31:19.651Z,27.40
2023-01-18T21:33:46.486Z,27.30
2023-01-18T21:36:15.600Z,27.30
2023-01-18T21:38:42.259Z,27.30
2023-01-18T21:41:28.049Z,27.30
2023-01-18T21:44:13.571Z,27.30
2023-01-18T21:46:47.937Z,27.30
2023-01-18T21:49:47.221Z,27.30
2023-01-18T21:52:38.103Z,27.30
2023-01-18T21:55:05.008Z,27.20
2023-01-18T21:57:31.573Z,27.20
2023-01-18T21:59:58.183Z,27.20
2023-01-18T22:02:25.051Z,27.20
2023-01-18T22:05:00.934Z,27.20
2023-01-18T22:07:29.841Z,27.20
2023-01-18T22:10:04.687Z,27.20
2023-01-18T22:12:33.324Z,27.20
2023-01-18T22:15:01.854Z,27.10
2023-01-18T22:17:28.811Z,27.10
2023-01-18T22:19:55.590Z,27.10
2023-01-18T22:22:22.209Z,27.10
2023-01-18T22:24:48.799Z,27.10
2023-01-18T22:27:15.419Z,27.20
2023-01-18T22:29:41.977Z,27.10
2023-01-18T22:32:08.549Z,27.10
2023-01-18T22:34:35.177Z,27.10
2023-01-18T22:37:03.103Z,27.10
2023-01-18T22:39:29.706Z,27.10
2023-01-18T22:41:56.374Z,27.00
2023-01-18T22:44:23.072Z,27.00
2023-01-18T22:46:49.638Z,27.00
2023-01-18T22:49:16.325Z,27.00
2023-01-18T22:51:42.923Z,27.00
2023-01-18T22:54:09.545Z,27.00
2023-01-18T22:56:36.440Z,27.00
2023-01-18T22:59:03.036Z,27.00
2023-01-18T23:01:31.643Z,27.00
2023-01-18T23:04:00.398Z,27.00
2023-01-18T23:06:28.830Z,27.00
2023-01-18T23:08:56.264Z,27.00
2023-01-18T23:11:29.095Z,27.00
2023-01-18T23:14:16.467Z,27.00
2023-01-18T23:17:02.472Z,27.00
2023-01-18T23:19:30.618Z,27.00
2023-01-18T23:21:58.009Z,27.00
2023-01-18T23:24:25.198Z,26.90
2023-01-18T23:26:52.007Z,27.00
2023-01-18T23:29:19.886Z,26.90
2023-01-18T23:31:46.773Z,26.90
2023-01-18T23:34:13.453Z,26.90
2023-01-18T23:36:40.113Z,26.90
2023-01-18T23:39:25.740Z,26.90
2023-01-18T23:42:11.231Z,27.00
2023-01-18T23:44:56.822Z,26.90
2023-01-18T23:47:42.232Z,26.90
2023-01-18T23:50:28.223Z,26.90
2023-01-18T23:53:13.661Z,27.10
2023-01-18T23:55:41.409Z,26.90
2023-01-18T23:58:08.151Z,26.90
